Time;durP1;ratioP1;P1;durP2;ratioP2;P2;SDS_P1;SDS_P2;PMS_P1;PMS_P2;Temp;Humidity;BMP_temperature;BMP_pressure;BME280_temperature;BME280_humidity;BME280_pressure;Samples;Min_cycle;Max_cycle;Signal;HPM_P1;HPM_P2
2022/12/05 00:01:39;;;;;;;38.80;34.50;;;4.60;99.90;;;;;;5096611;28;20905;-76
2022/12/05 00:04:13;;;;;;;38.70;33.73;;;4.60;99.90;;;;;;5096430;28;20472;-76
2022/12/05 00:06:42;;;;;;;43.70;35.67;;;4.60;99.90;;;;;;5095175;28;20519;-75
2022/12/05 00:09:13;;;;;;;42.60;36.77;;;4.60;99.90;;;;;;5096540;28;20440;-75
2022/12/05 00:11:43;;;;;;;39.23;35.00;;;4.60;99.90;;;;;;5095212;28;20881;-76
2022/12/05 00:14:12;;;;;;;41.27;34.90;;;4.60;99.90;;;;;;5095084;28;20474;-76
2022/12/05 00:16:42;;;;;;;41.03;36.53;;;4.60;99.90;;;;;;5096614;28;20867;-76
2022/12/05 00:19:13;;;;;;;45.43;38.77;;;4.60;99.90;;;;;;5096148;28;21014;-76
2022/12/05 00:21:42;;;;;;;41.73;37.30;;;4.60;99.90;;;;;;5095244;28;20590;-76
2022/12/05 00:24:16;;;;;;;41.67;37.10;;;4.60;99.90;;;;;;5094844;28;20517;-76
2022/12/05 00:26:44;;;;;;;40.60;35.13;;;4.60;99.90;;;;;;5096550;28;20515;-76
2022/12/05 00:29:12;;;;;;;41.13;36.83;;;4.60;99.90;;;;;;5094799;28;20817;-76
2022/12/05 00:31:40;;;;;;;41.47;36.90;;;4.60;99.90;;;;;;5104879;28;20448;-76
2022/12/05 00:34:09;;;;;;;43.77;37.30;;;4.60;99.90;;;;;;5116607;28;20787;-76
2022/12/05 00:36:37;;;;;;;41.37;36.83;;;4.60;99.90;;;;;;5115113;28;20550;-76
2022/12/05 00:39:08;;;;;;;42.80;37.30;;;4.50;99.90;;;;;;5114990;28;20455;-76
2022/12/05 00:41:38;;;;;;;41.00;36.27;;;4.60;99.90;;;;;;5115027;28;20811;-76
2022/12/05 00:44:06;;;;;;;38.17;33.63;;;4.50;99.90;;;;;;5116321;28;20463;-76
2022/12/05 00:46:35;;;;;;;41.57;36.20;;;4.60;99.90;;;;;;5116741;28;20470;-75
2022/12/05 00:49:05;;;;;;;41.67;37.20;;;4.50;99.90;;;;;;5116076;28;20440;-76
2022/12/05 00:51:35;;;;;;;38.80;34.63;;;4.50;99.90;;;;;;5116416;28;20435;-76
2022/12/05 00:54:06;;;;;;;40.50;36.10;;;4.50;99.90;;;;;;5114790;28;20463;-76
2022/12/05 00:56:34;;;;;;;41.93;37.00;;;4.50;99.90;;;;;;5114835;28;20439;-76
2022/12/05 00:59:05;;;;;;;41.50;36.10;;;4.50;99.90;;;;;;5114617;28;20463;-76
2022/12/05 01:01:36;;;;;;;39.47;34.97;;;4.50;99.90;;;;;;5116226;28;20797;-75
2022/12/05 01:04:08;;;;;;;43.77;37.67;;;4.50;99.90;;;;;;5114495;28;20475;-75
2022/12/05 01:06:36;;;;;;;40.13;35.30;;;4.50;99.90;;;;;;5115701;28;20426;-75
2022/12/05 01:09:05;;;;;;;42.93;37.10;;;4.50;99.90;;;;;;5114448;28;20505;-75
2022/12/05 01:11:33;;;;;;;37.90;33.90;;;4.50;99.90;;;;;;5114351;28;20951;-75
2022/12/05 01:14:10;;;;;;;39.40;34.73;;;4.50;99.90;;;;;;5115607;28;20859;-75
2022/12/05 01:16:40;;;;;;;39.70;35.40;;;4.50;99.90;;;;;;5115737;28;20878;-75
2022/12/05 01:19:12;;;;;;;43.10;35.50;;;4.50;99.90;;;;;;5115471;28;20995;-75
2022/12/05 01:21:40;;;;;;;39.10;34.13;;;4.50;99.90;;;;;;5108583;28;20458;-76
2022/12/05 01:24:09;;;;;;;40.30;35.53;;;4.50;99.90;;;;;;5097397;28;21074;-75
2022/12/05 01:26:38;;;;;;;39.90;35.53;;;4.50;99.90;;;;;;5097057;28;20937;-76
2022/12/05 01:29:06;;;;;;;40.13;34.03;;;4.50;99.90;;;;;;5097971;28;20448;-76
2022/12/05 01:31:37;;;;;;;41.90;34.80;;;4.50;99.90;;;;;;5094895;28;20937;-76
2022/12/05 01:34:07;;;;;;;38.03;33.87;;;4.60;99.90;;;;;;5094324;28;20893;-75
2022/12/05 01:36:38;;;;;;;42.20;35.07;;;4.60;99.90;;;;;;5095620;28;20420;-75
2022/12/05 01:39:06;;;;;;;40.90;36.07;;;4.50;99.90;;;;;;5095569;28;20854;-75
2022/12/05 01:41:36;;;;;;;40.60;34.40;;;4.60;99.90;;;;;;5095249;28;20436;-75
2022/12/05 01:44:06;;;;;;;38.07;33.83;;;4.60;99.90;;;;;;5094773;28;20543;-75
2022/12/05 01:46:37;;;;;;;38.20;33.90;;;4.60;99.90;;;;;;5094885;28;20444;-75
2022/12/05 01:49:11;;;;;;;39.70;35.40;;;4.60;99.90;;;;;;5093474;28;20814;-74
2022/12/05 01:51:41;;;;;;;40.07;34.00;;;4.60;99.90;;;;;;5093289;28;20922;-75
2022/12/05 01:54:10;;;;;;;42.67;34.77;;;4.60;99.90;;;;;;5093231;28;20984;-75
2022/12/05 01:56:41;;;;;;;40.40;34.00;;;4.60;99.90;;;;;;5093158;28;20493;-75
2022/12/05 01:59:10;;;;;;;39.87;34.13;;;4.60;99.90;;;;;;5093145;28;20891;-75
2022/12/05 02:01:40;;;;;;;40.27;33.43;;;4.60;99.90;;;;;;5094593;28;20473;-75
2022/12/05 02:04:09;;;;;;;41.50;34.87;;;4.60;99.90;;;;;;5092956;28;20475;-75
2022/12/05 02:06:38;;;;;;;40.93;34.77;;;4.60;99.90;;;;;;5092965;28;20475;-75
2022/12/05 02:09:06;;;;;;;39.67;35.47;;;4.60;99.90;;;;;;5092915;28;20498;-75
2022/12/05 02:11:39;;;;;;;41.57;35.43;;;4.60;99.90;;;;;;5095679;28;20991;-75
2022/12/05 02:14:20;;;;;;;46.57;37.57;;;4.60;99.90;;;;;;5092905;28;20499;-75
2022/12/05 02:16:58;;;;;;;43.20;35.67;;;4.60;99.90;;;;;;5092793;28;20444;-75
2022/12/05 02:19:59;;;;;;;46.03;35.53;;;4.60;99.90;;;;;;5094210;28;20524;-75
2022/12/05 02:22:48;;;;;;;45.23;38.30;;;4.60;99.90;;;;;;5087278;28;20474;-75
2022/12/05 02:25:41;;;;;;;48.20;38.80;;;4.60;99.90;;;;;;5093859;28;21007;-75
2022/12/05 02:28:37;;;;;;;45.10;36.00;;;4.60;99.90;;;;;;5094167;28;20435;-75
2022/12/05 02:31:10;;;;;;;45.90;37.60;;;4.60;99.90;;;;;;5092220;28;20443;-75
2022/12/05 02:33:45;;;;;;;47.90;37.43;;;4.60;99.90;;;;;;5092443;28;20460;-75
2022/12/05 02:36:17;;;;;;;42.50;34.60;;;4.60;99.90;;;;;;5092525;28;20936;-75
2022/12/05 02:38:54;;;;;;;44.97;35.00;;;4.60;99.90;;;;;;5097953;28;20527;-75
2022/12/05 02:41:26;;;;;;;45.20;37.03;;;4.60;99.90;;;;;;5094173;28;20429;-75
2022/12/05 02:43:59;;;;;;;45.70;35.23;;;4.60;99.90;;;;;;5093579;28;20502;-75
2022/12/05 02:46:32;;;;;;;43.53;35.70;;;4.60;99.90;;;;;;5093835;28;20456;-75
2022/12/05 02:49:04;;;;;;;40.70;35.10;;;4.60;99.90;;;;;;5092808;28;20440;-75
2022/12/05 02:51:35;;;;;;;44.97;34.00;;;4.60;99.90;;;;;;5092326;28;20877;-75
2022/12/05 02:54:08;;;;;;;47.63;36.00;;;4.60;99.90;;;;;;5092374;28;20834;-75
2022/12/05 02:56:37;;;;;;;44.03;34.57;;;4.60;99.90;;;;;;5093645;28;20456;-75
2022/12/05 02:59:05;;;;;;;41.10;34.90;;;4.60;99.90;;;;;;5091972;28;20875;-75
2022/12/05 03:01:35;;;;;;;43.00;36.33;;;4.60;99.90;;;;;;5095487;28;20452;-75
2022/12/05 03:04:06;;;;;;;44.20;35.33;;;4.60;99.90;;;;;;5092215;28;20464;-75
2022/12/05 03:06:37;;;;;;;44.00;35.73;;;4.60;99.90;;;;;;5093292;28;20475;-75
2022/12/05 03:09:09;;;;;;;46.80;38.43;;;4.60;99.90;;;;;;5093740;28;20420;-75
2022/12/05 03:11:41;;;;;;;42.80;34.90;;;4.60;99.90;;;;;;5093636;28;20416;-75
2022/12/05 03:14:14;;;;;;;42.87;33.63;;;4.60;99.90;;;;;;5093441;28;20463;-75
2022/12/05 03:16:49;;;;;;;44.60;36.10;;;4.60;99.90;;;;;;5093137;28;20773;-75
2022/12/05 03:19:23;;;;;;;43.27;34.50;;;4.60;99.90;;;;;;5092034;28;20793;-75
2022/12/05 03:21:56;;;;;;;41.90;33.50;;;4.60;99.90;;;;;;5091921;28;20946;-75
2022/12/05 03:24:24;;;;;;;39.63;32.97;;;4.60;99.90;;;;;;5093377;28;20474;-75
2022/12/05 03:27:01;;;;;;;38.83;34.27;;;4.60;99.90;;;;;;5091819;28;20485;-75
2022/12/05 03:29:36;;;;;;;36.63;31.63;;;4.60;99.90;;;;;;5093306;28;20435;-76
2022/12/05 03:32:15;;;;;;;39.40;32.23;;;4.60;99.90;;;;;;5093508;28;20421;-76
2022/12/05 03:34:51;;;;;;;40.97;35.00;;;4.60;99.90;;;;;;5091784;28;20835;-76
2022/12/05 03:37:26;;;;;;;43.60;34.83;;;4.60;99.90;;;;;;5093339;28;20765;-76
2022/12/05 03:40:04;;;;;;;40.47;33.17;;;4.70;99.90;;;;;;5093356;28;20480;-76
2022/12/05 03:42:36;;;;;;;38.67;32.10;;;4.60;99.90;;;;;;5091684;28;20452;-76
2022/12/05 03:45:08;;;;;;;35.13;30.53;;;4.60;99.90;;;;;;5091752;28;20468;-76
2022/12/05 03:47:46;;;;;;;39.90;33.73;;;4.60;99.90;;;;;;5093116;28;20412;-76
2022/12/05 03:50:22;;;;;;;45.87;34.00;;;4.60;99.90;;;;;;5093165;28;20449;-76
2022/12/05 03:52:56;;;;;;;41.07;33.27;;;4.60;99.90;;;;;;5094011;28;20917;-76
2022/12/05 03:55:47;;;;;;;40.27;32.63;;;4.60;99.90;;;;;;5093145;28;20444;-75
2022/12/05 03:58:21;;;;;;;39.73;32.83;;;4.60;99.90;;;;;;5091626;28;20848;-76
2022/12/05 04:00:53;;;;;;;41.27;33.40;;;4.70;99.90;;;;;;5091603;28;20487;-76
2022/12/05 04:03:37;;;;;;;40.53;33.70;;;4.70;99.90;;;;;;5093024;28;20465;-76
2022/12/05 04:06:12;;;;;;;43.77;33.50;;;4.70;99.90;;;;;;5093019;28;20463;-76
2022/12/05 04:08:45;;;;;;;34.90;30.60;;;4.70;99.90;;;;;;5094938;28;20790;-76
2022/12/05 04:11:16;;;;;;;36.43;30.50;;;4.70;99.90;;;;;;5095188;28;20447;-76
2022/12/05 04:13:49;;;;;;;38.23;31.60;;;4.70;99.90;;;;;;5095291;28;20472;-76
2022/12/05 04:19:12;;;;;;;37.43;31.23;;;4.70;99.90;;;;;;5095107;28;20921;-76
2022/12/05 04:21:44;;;;;;;38.67;33.10;;;4.70;99.90;;;;;;5095396;28;20441;-76
2022/12/05 04:27:13;;;;;;;34.73;30.37;;;4.70;99.90;;;;;;5094986;28;20543;-76
2022/12/05 04:29:48;;;;;;;40.07;31.30;;;4.70;99.90;;;;;;5095020;28;20994;-76
2022/12/05 04:32:19;;;;;;;37.43;30.80;;;4.70;99.90;;;;;;5096313;28;20428;-76
2022/12/05 04:34:54;;;;;;;37.30;32.23;;;4.70;99.90;;;;;;5094655;28;20892;-76
2022/12/05 04:37:25;;;;;;;36.50;30.87;;;4.70;99.90;;;;;;5094783;28;20443;-76
2022/12/05 04:39:57;;;;;;;40.40;31.57;;;4.70;99.90;;;;;;5096258;28;20420;-76
2022/12/05 04:42:28;;;;;;;37.77;31.10;;;4.70;99.90;;;;;;5098720;28;20456;-76
2022/12/05 04:45:03;;;;;;;38.70;32.10;;;4.70;99.90;;;;;;5096209;28;20505;-76
2022/12/05 04:47:36;;;;;;;33.97;30.27;;;4.70;99.90;;;;;;5096034;28;20563;-75
2022/12/05 04:50:10;;;;;;;34.53;30.27;;;4.70;99.90;;;;;;5094982;28;20860;-76
2022/12/05 04:52:39;;;;;;;37.50;30.83;;;4.70;99.90;;;;;;5094517;28;20441;-76
2022/12/05 04:55:11;;;;;;;35.53;30.07;;;4.70;99.90;;;;;;5094270;28;20517;-76
2022/12/05 04:57:46;;;;;;;37.70;31.47;;;4.70;99.90;;;;;;5094634;28;20830;-76
2022/12/05 05:00:14;;;;;;;34.70;28.27;;;4.70;99.90;;;;;;5094130;28;20957;-76
2022/12/05 05:02:47;;;;;;;36.87;30.93;;;4.70;99.90;;;;;;5095416;28;20781;-76
2022/12/05 05:05:19;;;;;;;37.13;29.80;;;4.70;99.90;;;;;;5095974;28;20456;-76
2022/12/05 05:07:50;;;;;;;35.10;30.93;;;4.70;99.90;;;;;;5099488;28;20456;-75
2022/12/05 05:10:26;;;;;;;39.87;30.90;;;4.70;99.90;;;;;;5102454;28;20828;-75
2022/12/05 05:12:55;;;;;;;35.60;30.17;;;4.70;99.90;;;;;;5102485;28;20502;-75
2022/12/05 05:15:23;;;;;;;35.90;31.80;;;4.70;99.90;;;;;;5101287;28;20977;-75
2022/12/05 05:17:51;;;;;;;33.23;29.63;;;4.70;99.90;;;;;;5099612;28;20455;-75
2022/12/05 05:20:23;;;;;;;37.83;32.00;;;4.70;99.90;;;;;;5103625;28;20436;-75
2022/12/05 05:22:53;;;;;;;36.13;30.90;;;4.70;99.90;;;;;;5105011;28;20471;-75
2022/12/05 05:25:21;;;;;;;35.93;30.03;;;4.70;99.90;;;;;;5105456;28;20448;-75
2022/12/05 05:27:50;;;;;;;34.20;30.60;;;4.80;99.90;;;;;;5105248;28;20472;-75
2022/12/05 05:30:19;;;;;;;37.67;31.80;;;4.80;99.90;;;;;;5105080;28;20997;-76
2022/12/05 05:32:48;;;;;;;39.20;31.97;;;4.80;99.90;;;;;;5103874;28;20441;-76
2022/12/05 05:35:16;;;;;;;37.03;30.80;;;4.80;99.90;;;;;;5095776;28;20485;-76
2022/12/05 05:37:46;;;;;;;36.07;31.07;;;4.80;99.90;;;;;;5094148;28;20810;-76
2022/12/05 05:40:14;;;;;;;34.90;30.70;;;4.80;99.90;;;;;;5095346;28;20471;-76
2022/12/05 05:42:45;;;;;;;36.80;32.20;;;4.80;99.90;;;;;;5094354;28;20448;-76
2022/12/05 05:45:14;;;;;;;35.43;31.13;;;4.80;99.90;;;;;;5095480;28;20455;-76
2022/12/05 05:47:43;;;;;;;34.60;30.33;;;4.80;99.90;;;;;;5093620;28;20463;-76
2022/12/05 05:50:12;;;;;;;35.50;31.17;;;4.80;99.90;;;;;;5094888;28;20527;-76
2022/12/05 05:52:49;;;;;;;35.07;30.57;;;4.80;99.90;;;;;;5093489;28;20454;-76
2022/12/05 05:55:18;;;;;;;35.43;30.17;;;4.90;99.90;;;;;;5093434;28;20869;-76
2022/12/05 05:57:46;;;;;;;35.70;29.03;;;4.80;99.90;;;;;;5093495;28;20442;-77
2022/12/05 06:00:15;;;;;;;34.20;28.73;;;4.90;99.90;;;;;;5094721;28;20456;-76
2022/12/05 06:02:43;;;;;;;36.00;30.50;;;4.90;99.90;;;;;;5094575;28;20436;-76
2022/12/05 06:05:12;;;;;;;33.60;29.13;;;4.90;99.90;;;;;;5093308;28;20452;-77
2022/12/05 06:07:40;;;;;;;34.27;29.13;;;4.90;99.90;;;;;;5094878;28;20871;-77
2022/12/05 06:10:10;;;;;;;32.80;28.07;;;4.90;99.90;;;;;;5093186;28;20451;-77
2022/12/05 06:12:38;;;;;;;35.60;29.80;;;4.90;99.90;;;;;;5094768;28;20444;-77
2022/12/05 06:15:08;;;;;;;32.27;28.87;;;4.90;99.90;;;;;;5094612;28;20475;-77
2022/12/05 06:17:36;;;;;;;32.73;28.87;;;4.90;99.90;;;;;;5092999;28;20447;-77
2022/12/05 06:20:04;;;;;;;31.70;27.27;;;4.90;99.90;;;;;;5094221;28;20428;-76
2022/12/05 06:22:33;;;;;;;30.67;26.87;;;5.00;99.90;;;;;;5108892;28;20459;-77
2022/12/05 06:25:01;;;;;;;34.40;28.60;;;5.00;99.90;;;;;;5114028;28;20853;-77
2022/12/05 06:27:31;;;;;;;33.03;28.13;;;5.00;99.90;;;;;;5114414;28;20485;-77
2022/12/05 06:29:59;;;;;;;31.20;25.50;;;5.00;99.90;;;;;;5118371;28;20948;-77
2022/12/05 06:32:28;;;;;;;32.20;27.90;;;5.00;99.90;;;;;;5116588;28;20487;-77
2022/12/05 06:34:56;;;;;;;31.33;27.30;;;5.00;99.90;;;;;;5116026;27;20442;-77
2022/12/05 06:37:24;;;;;;;30.70;27.00;;;5.00;99.90;;;;;;5113554;28;20451;-77
2022/12/05 06:39:52;;;;;;;28.83;25.67;;;5.00;99.90;;;;;;5113131;28;20439;-76
2022/12/05 06:42:21;;;;;;;32.47;26.60;;;5.00;99.90;;;;;;5112856;28;20459;-76
2022/12/05 06:44:51;;;;;;;31.30;26.90;;;5.00;99.90;;;;;;5114366;28;20972;-77
2022/12/05 06:47:19;;;;;;;31.10;27.50;;;5.00;99.90;;;;;;5112655;28;20467;-77
2022/12/05 06:49:47;;;;;;;29.80;26.60;;;5.00;99.90;;;;;;5112868;28;20448;-77
2022/12/05 06:52:15;;;;;;;31.40;25.43;;;5.00;99.90;;;;;;5112744;28;20944;-77
2022/12/05 06:54:45;;;;;;;31.57;28.00;;;5.00;99.90;;;;;;5112825;28;20467;-77
2022/12/05 06:57:13;;;;;;;30.13;26.93;;;5.00;99.90;;;;;;5113947;28;20450;-77
2022/12/05 06:59:41;;;;;;;31.47;28.10;;;5.10;99.90;;;;;;5112702;28;20800;-77
2022/12/05 07:02:12;;;;;;;31.67;27.70;;;5.10;99.90;;;;;;5112731;28;20444;-77
2022/12/05 07:04:40;;;;;;;30.97;27.40;;;5.10;99.90;;;;;;5112898;28;20528;-77
2022/12/05 07:07:08;;;;;;;30.50;27.20;;;5.10;99.90;;;;;;5112782;28;20463;-77
2022/12/05 07:09:52;;;;;;;29.40;26.30;;;5.00;99.90;;;;;;5112662;28;20466;-77
2022/12/05 07:12:23;;;;;;;29.33;25.90;;;5.10;99.90;;;;;;5095550;28;20816;-78
2022/12/05 07:14:52;;;;;;;27.67;24.20;;;5.10;99.90;;;;;;5092034;28;20464;-77
2022/12/05 07:17:22;;;;;;;28.83;23.70;;;5.10;99.90;;;;;;5092164;28;20808;-78
2022/12/05 07:19:51;;;;;;;27.77;24.77;;;5.20;99.90;;;;;;5092483;28;20955;-77
2022/12/05 07:22:20;;;;;;;26.47;22.63;;;5.10;99.90;;;;;;5092260;28;20463;-77
2022/12/05 07:24:51;;;;;;;24.60;21.57;;;5.10;99.90;;;;;;5092236;28;20460;-77
2022/12/05 07:27:19;;;;;;;22.17;19.87;;;5.10;99.90;;;;;;5092132;28;20460;-78
2022/12/05 07:29:54;;;;;;;23.03;20.10;;;5.30;99.90;;;;;;5092266;28;20531;-77
2022/12/05 07:32:25;;;;;;;24.87;22.10;;;5.20;99.90;;;;;;5093450;28;20429;-77
2022/12/05 07:34:53;;;;;;;30.33;27.03;;;5.20;99.90;;;;;;5092160;28;20478;-77
2022/12/05 07:37:22;;;;;;;25.60;23.00;;;5.20;99.90;;;;;;5093370;28;20961;-77
2022/12/05 07:39:52;;;;;;;22.03;19.83;;;5.20;99.90;;;;;;5092259;28;20522;-77
2022/12/05 07:42:20;;;;;;;29.03;25.90;;;5.20;99.90;;;;;;5094252;28;20808;-77
2022/12/05 07:44:48;;;;;;;24.77;22.07;;;5.20;99.90;;;;;;5097165;28;20467;-77
2022/12/05 07:47:16;;;;;;;23.43;20.93;;;5.20;99.90;;;;;;5095860;28;20822;-77
2022/12/05 07:49:46;;;;;;;23.33;20.83;;;5.20;99.90;;;;;;5095644;28;20440;-77
2022/12/05 07:52:14;;;;;;;25.30;22.60;;;5.20;99.90;;;;;;5095618;28;21023;-77
2022/12/05 07:54:42;;;;;;;26.17;23.37;;;5.20;99.90;;;;;;5096911;28;20462;-77
2022/12/05 07:57:10;;;;;;;27.27;23.77;;;5.20;99.90;;;;;;5097061;28;20432;-77
2022/12/05 07:59:38;;;;;;;28.33;25.27;;;5.20;99.90;;;;;;5095483;28;20455;-77
2022/12/05 08:02:06;;;;;;;29.10;25.30;;;5.20;99.90;;;;;;5099116;28;20525;-77
2022/12/05 08:04:34;;;;;;;29.20;26.10;;;5.20;99.90;;;;;;5095265;28;20528;-77
2022/12/05 08:07:04;;;;;;;28.00;24.97;;;5.20;99.90;;;;;;5095328;28;20452;-77
2022/12/05 08:09:32;;;;;;;28.30;25.30;;;5.20;99.90;;;;;;5096596;28;20973;-77
2022/12/05 08:12:00;;;;;;;30.70;27.60;;;5.20;99.90;;;;;;5095271;28;20432;-77
2022/12/05 08:14:28;;;;;;;28.63;25.60;;;5.20;99.90;;;;;;5095106;28;20468;-77
2022/12/05 08:16:56;;;;;;;28.00;25.00;;;5.20;99.90;;;;;;5096521;28;20769;-77
2022/12/05 08:19:24;;;;;;;27.50;24.50;;;5.20;99.90;;;;;;5096703;28;20937;-77
2022/12/05 08:21:54;;;;;;;26.37;23.50;;;5.20;99.90;;;;;;5095092;28;20509;-77
2022/12/05 08:24:24;;;;;;;29.63;26.47;;;5.20;99.90;;;;;;5095360;28;20467;-77
2022/12/05 08:26:52;;;;;;;27.07;24.10;;;5.20;99.90;;;;;;5096549;28;20470;-77
2022/12/05 08:29:21;;;;;;;29.50;25.13;;;5.20;99.90;;;;;;5094826;28;20468;-77
2022/12/05 08:31:51;;;;;;;27.77;24.70;;;5.20;99.90;;;;;;5096443;28;20527;-77
2022/12/05 08:34:20;;;;;;;27.17;24.30;;;5.20;99.90;;;;;;5094886;28;20836;-77
2022/12/05 08:36:49;;;;;;;28.33;24.73;;;5.20;99.90;;;;;;5095942;28;20813;-77
2022/12/05 08:39:20;;;;;;;27.77;24.53;;;5.20;99.90;;;;;;5094895;28;20452;-77
2022/12/05 08:41:50;;;;;;;25.33;22.13;;;5.20;99.90;;;;;;5094809;28;20433;-77
2022/12/05 08:44:18;;;;;;;26.27;23.60;;;5.30;99.90;;;;;;5094629;28;20474;-77
2022/12/05 08:46:48;;;;;;;28.20;24.83;;;5.20;99.90;;;;;;5094562;28;20957;-77
2022/12/05 08:49:18;;;;;;;25.43;22.77;;;5.20;99.90;;;;;;5096148;28;20460;-77
2022/12/05 08:51:46;;;;;;;24.07;21.57;;;5.20;99.90;;;;;;5098037;28;20451;-77
2022/12/05 08:54:15;;;;;;;24.60;22.10;;;5.20;99.90;;;;;;5094261;28;20824;-78
2022/12/05 08:56:43;;;;;;;25.63;22.77;;;5.20;99.90;;;;;;5094392;28;20471;-77
2022/12/05 08:59:12;;;;;;;26.43;23.60;;;5.20;99.90;;;;;;5095382;28;20444;-77
2022/12/05 09:01:41;;;;;;;25.23;22.43;;;5.20;99.90;;;;;;5094382;28;20490;-78
2022/12/05 09:04:10;;;;;;;26.97;23.70;;;5.20;99.90;;;;;;5094431;28;20468;-77
2022/12/05 09:06:40;;;;;;;26.80;23.47;;;5.20;99.90;;;;;;5096842;28;20482;-77
2022/12/05 09:09:11;;;;;;;29.73;26.63;;;5.30;99.90;;;;;;5097509;28;20969;-77
2022/12/05 09:11:45;;;;;;;28.97;25.50;;;5.20;99.90;;;;;;5095629;28;20448;-78
2022/12/05 09:14:15;;;;;;;27.33;24.43;;;5.20;99.90;;;;;;5095700;28;20562;-77
2022/12/05 09:16:45;;;;;;;29.53;26.43;;;5.30;99.90;;;;;;5096563;28;20458;-77
2022/12/05 09:19:16;;;;;;;28.60;25.57;;;5.30;99.90;;;;;;5096390;28;20456;-77
2022/12/05 09:21:44;;;;;;;29.30;26.10;;;5.30;99.90;;;;;;5094909;28;20444;-77
2022/12/05 09:24:13;;;;;;;29.20;25.97;;;5.30;99.90;;;;;;5096462;28;20472;-77
2022/12/05 09:26:42;;;;;;;30.83;26.03;;;5.30;99.90;;;;;;5094834;28;20436;-77
2022/12/05 09:29:11;;;;;;;28.77;25.63;;;5.30;99.90;;;;;;5095632;28;20460;-77
2022/12/05 09:31:47;;;;;;;28.07;25.13;;;5.30;99.90;;;;;;5094666;28;20440;-77
2022/12/05 09:34:16;;;;;;;28.20;25.20;;;5.30;99.90;;;;;;5095320;28;21001;-77
2022/12/05 09:36:50;;;;;;;28.10;25.13;;;5.30;99.90;;;;;;5093760;28;20440;-77
2022/12/05 09:39:19;;;;;;;30.23;26.13;;;5.30;99.90;;;;;;5094138;28;20445;-77
2022/12/05 09:42:07;;;;;;;29.93;26.80;;;5.30;99.90;;;;;;5096062;28;20444;-77
2022/12/05 09:44:44;;;;;;;28.13;25.13;;;5.30;99.90;;;;;;5093564;28;20494;-77
2022/12/05 09:47:27;;;;;;;29.17;26.07;;;5.30;99.90;;;;;;5094815;28;20423;-77
2022/12/05 09:49:58;;;;;;;28.53;25.60;;;5.30;99.90;;;;;;5093559;28;20559;-77
2022/12/05 09:52:30;;;;;;;27.17;24.30;;;5.30;99.90;;;;;;5093714;28;20441;-77
2022/12/05 09:55:04;;;;;;;29.23;26.07;;;5.30;99.90;;;;;;5093281;28;20521;-76
2022/12/05 09:57:38;;;;;;;28.47;25.47;;;5.30;99.90;;;;;;5094570;28;20473;-76
2022/12/05 10:00:09;;;;;;;27.93;24.90;;;5.30;99.90;;;;;;5094395;28;20857;-77
2022/12/05 10:02:50;;;;;;;27.10;24.20;;;5.30;99.90;;;;;;5093139;28;20448;-76
2022/12/05 10:05:24;;;;;;;24.47;21.10;;;5.30;99.90;;;;;;5092526;28;20478;-77
2022/12/05 10:08:03;;;;;;;25.07;21.80;;;5.30;99.90;;;;;;5092992;28;20444;-77
2022/12/05 10:10:39;;;;;;;23.43;20.90;;;5.30;99.90;;;;;;5092884;28;20460;-77
2022/12/05 10:13:21;;;;;;;26.13;22.57;;;5.30;99.90;;;;;;5092887;28;20437;-77
2022/12/05 10:15:52;;;;;;;22.77;20.37;;;5.30;99.90;;;;;;5096477;28;20963;-76
2022/12/05 10:18:33;;;;;;;23.50;20.93;;;5.20;99.90;;;;;;5095026;28;20530;-77
2022/12/05 10:21:05;;;;;;;22.67;20.40;;;5.30;99.90;;;;;;5095461;28;20420;-77
2022/12/05 10:23:50;;;;;;;22.00;19.70;;;5.20;99.90;;;;;;5094640;28;20961;-77
2022/12/05 10:26:30;;;;;;;22.87;19.73;;;5.20;99.90;;;;;;5092950;28;20440;-77
2022/12/05 10:29:05;;;;;;;23.33;20.60;;;5.30;99.90;;;;;;5094021;28;20462;-77
2022/12/05 10:31:39;;;;;;;23.00;20.50;;;5.30;99.90;;;;;;5095613;28;20452;-77
2022/12/05 10:34:16;;;;;;;25.10;21.90;;;5.20;99.90;;;;;;5094143;28;20866;-77
2022/12/05 10:36:54;;;;;;;23.03;20.53;;;5.20;99.90;;;;;;5092568;28;20534;-77
2022/12/05 10:39:23;;;;;;;29.37;26.40;;;5.20;99.90;;;;;;5092566;28;20454;-77
2022/12/05 10:41:51;;;;;;;33.37;30.07;;;5.20;99.90;;;;;;5092335;28;20937;-77
2022/12/05 10:44:19;;;;;;;21.97;19.40;;;5.20;99.90;;;;;;5092404;28;20981;-77
2022/12/05 10:46:48;;;;;;;24.03;20.80;;;5.20;99.90;;;;;;5092452;28;20474;-77
2022/12/05 10:49:18;;;;;;;20.90;18.60;;;5.20;99.90;;;;;;5093853;28;20464;-77
2022/12/05 10:51:47;;;;;;;19.60;17.50;;;5.20;99.90;;;;;;5092340;28;20451;-77
2022/12/05 10:54:20;;;;;;;20.03;17.80;;;5.20;99.90;;;;;;5093788;28;20465;-77
2022/12/05 10:56:50;;;;;;;19.30;17.30;;;5.20;99.90;;;;;;5093860;28;20420;-77
2022/12/05 10:59:22;;;;;;;19.50;17.30;;;5.20;99.90;;;;;;5092125;28;20543;-77
2022/12/05 11:01:53;;;;;;;19.23;17.33;;;5.20;99.90;;;;;;5093524;28;20433;-77
2022/12/05 11:04:28;;;;;;;20.23;17.37;;;5.20;99.90;;;;;;5092370;28;20468;-77
2022/12/05 11:06:59;;;;;;;18.50;16.53;;;5.20;99.90;;;;;;5093262;28;20952;-77
2022/12/05 11:09:30;;;;;;;19.60;17.57;;;5.20;99.90;;;;;;5092049;28;20476;-77
2022/12/05 11:12:06;;;;;;;20.93;18.83;;;5.20;99.90;;;;;;5092137;28;20444;-77
2022/12/05 11:14:35;;;;;;;21.13;18.83;;;5.20;99.90;;;;;;5093394;28;20451;-77
2022/12/05 11:17:05;;;;;;;22.30;20.07;;;5.10;99.90;;;;;;5094585;28;20542;-77
2022/12/05 11:19:36;;;;;;;23.80;20.67;;;5.10;99.90;;;;;;5097845;28;20478;-77
2022/12/05 11:22:06;;;;;;;25.90;23.40;;;5.10;99.90;;;;;;5099148;28;20539;-77
2022/12/05 11:24:37;;;;;;;22.53;20.23;;;5.10;99.90;;;;;;5096107;28;20844;-76
2022/12/05 11:27:21;;;;;;;20.80;18.53;;;5.10;99.90;;;;;;5097850;28;20841;-76
2022/12/05 11:29:59;;;;;;;24.00;19.43;;;5.10;99.90;;;;;;5097815;28;20467;-77
2022/12/05 11:32:29;;;;;;;21.93;19.60;;;5.10;99.90;;;;;;5096852;28;20937;-77
2022/12/05 11:35:08;;;;;;;20.80;18.73;;;5.10;99.90;;;;;;5096045;28;20483;-77
2022/12/05 11:37:43;;;;;;;19.70;17.70;;;5.10;99.90;;;;;;5096146;28;20808;-77
2022/12/05 11:40:16;;;;;;;20.63;18.43;;;5.00;99.90;;;;;;5097670;28;20420;-77
2022/12/05 11:43:05;;;;;;;21.83;19.63;;;5.00;99.90;;;;;;5097394;28;20477;-77
2022/12/05 11:45:49;;;;;;;20.07;18.07;;;5.00;99.90;;;;;;5096939;28;20995;-77
2022/12/05 11:48:33;;;;;;;19.37;17.37;;;5.00;99.90;;;;;;5095822;28;20530;-77
2022/12/05 11:51:28;;;;;;;20.30;18.20;;;5.00;99.90;;;;;;5096141;28;20767;-77
2022/12/05 11:54:23;;;;;;;20.93;18.73;;;5.00;99.90;;;;;;5088095;28;20464;-77
2022/12/05 11:57:21;;;;;;;19.53;17.53;;;5.00;99.90;;;;;;5095588;28;20561;-77
2022/12/05 12:00:11;;;;;;;21.63;19.37;;;4.90;99.90;;;;;;5096677;28;21002;-77
2022/12/05 12:03:00;;;;;;;20.57;18.20;;;4.90;99.90;;;;;;5097323;28;20760;-77
2022/12/05 12:05:37;;;;;;;20.63;18.57;;;4.90;99.90;;;;;;5095421;28;20513;-77
2022/12/05 12:08:18;;;;;;;23.20;19.03;;;4.90;99.90;;;;;;5095426;28;20933;-77
2022/12/05 12:10:55;;;;;;;22.00;19.70;;;4.90;99.90;;;;;;5098486;28;20475;-77
2022/12/05 12:13:37;;;;;;;21.50;19.20;;;4.90;99.90;;;;;;5095185;28;20496;-77
2022/12/05 12:16:15;;;;;;;19.40;17.50;;;4.90;99.90;;;;;;5097048;28;20890;-78
2022/12/05 12:19:02;;;;;;;20.27;18.17;;;4.80;99.90;;;;;;5096763;28;20427;-77
2022/12/05 12:21:42;;;;;;;19.83;17.83;;;4.80;99.90;;;;;;5095009;28;20444;-77
2022/12/05 12:24:21;;;;;;;20.57;18.40;;;4.80;99.90;;;;;;5095077;28;20485;-77
2022/12/05 12:27:02;;;;;;;21.77;19.47;;;4.80;99.90;;;;;;5096379;28;20433;-77
2022/12/05 12:29:42;;;;;;;20.90;18.73;;;4.80;99.90;;;;;;5094346;28;20441;-77
2022/12/05 12:32:24;;;;;;;20.60;18.40;;;4.80;99.90;;;;;;5095130;28;20447;-77
2022/12/05 12:35:28;;;;;;;20.67;18.50;;;4.80;99.90;;;;;;5095572;28;20472;-77
2022/12/05 12:38:17;;;;;;;21.10;18.80;;;4.70;99.90;;;;;;5071648;28;20455;-77
2022/12/05 12:40:50;;;;;;;18.27;16.47;;;4.70;99.90;;;;;;5096308;28;20413;-77
2022/12/05 12:43:35;;;;;;;28.37;25.67;;;4.70;99.90;;;;;;5094474;28;20443;-77
2022/12/05 12:46:34;;;;;;;22.20;20.03;;;4.60;99.90;;;;;;5094492;28;20436;-77
2022/12/05 12:49:28;;;;;;;31.13;22.53;;;4.60;99.90;;;;;;5094582;28;20485;-77
2022/12/05 12:52:03;;;;;;;26.57;22.20;;;4.60;99.90;;;;;;5095714;28;20464;-77
2022/12/05 12:55:03;;;;;;;21.17;18.17;;;4.60;99.90;;;;;;5099187;28;20463;-77
2022/12/05 12:57:51;;;;;;;22.20;19.90;;;4.60;99.90;;;;;;5096205;28;20475;-77
2022/12/05 13:00:26;;;;;;;24.40;19.27;;;4.50;99.90;;;;;;5095772;28;20462;-77
2022/12/05 13:03:00;;;;;;;21.23;19.03;;;4.50;99.90;;;;;;5095794;28;20572;-77
2022/12/05 13:05:34;;;;;;;21.03;18.50;;;4.50;99.90;;;;;;5094361;28;20460;-77
2022/12/05 13:08:06;;;;;;;21.40;18.87;;;4.50;99.90;;;;;;5095924;28;20454;-77
2022/12/05 13:10:39;;;;;;;21.80;19.50;;;4.50;99.90;;;;;;5095961;28;20783;-77